KWVI/WVI METAR and TAF weather

Enter ICAO airport designator
Station Type Date Time Source
KWVI METAR 2020/07/14 15:53 UTC NOAA

KWVI 141553Z AUTO 22005KT 9SM OVC010 13/11 A2999 RMK AO2 SLP156 T01330111


Station Type Date Time Source
KWVI Decoded METAR 2020/07/14 15:53 UTC NOAA

WATSONVILLE MUNICIPAL AIRPORT , CA, United States (KWVI) 36-56N 121-47W 43M
Jul 14, 2020 - 11:53 AM EDT / 2020.07.14 1553 UTC
Wind: from the SW (220 degrees) at 6 MPH (5 KT):0
Visibility: 9 mile(s):0
Sky conditions: overcast
Temperature: 55.9 F (13.3 C)
Dew Point: 52.0 F (11.1 C)
Relative Humidity: 86%
Pressure (altimeter): 29.99 in. Hg (1015 hPa)
ob: KWVI 141553Z AUTO 22005KT 9SM OVC010 13/11 A2999 RMK AO2 SLP156 T01330111
cycle: 16

Station Type Date Time Source
KWVI TAF UTC NOAA

Error!

Example: see airport list